Time;durP1;ratioP1;P1;durP2;ratioP2;P2;SDS_P1;SDS_P2;PMS_P1;PMS_P2;Temp;Humidity;BMP_temperature;BMP_pressure;BME280_temperature;BME280_humidity;BME280_pressure;Samples;Min_cycle;Max_cycle;Signal;HPM_P1;HPM_P2
2021/03/21 00:00:40;;;;;;;2.50;1.10;;;;;;;5.21;73.33;99631.56;5062468;28;20217;-65
2021/03/21 00:03:07;;;;;;;1.33;1.10;;;;;;;5.22;73.46;99632.41;5065539;28;20588;-65
2021/03/21 00:05:35;;;;;;;4.40;1.60;;;;;;;5.20;73.11;99627.19;5061319;28;20593;-65
2021/03/21 00:08:06;;;;;;;2.67;0.97;;;;;;;5.23;73.14;99629.66;5061145;28;20201;-65
2021/03/21 00:10:35;;;;;;;1.57;0.90;;;;;;;5.17;73.12;99627.38;5068845;28;20194;-65
2021/03/21 00:13:04;;;;;;;1.67;1.20;;;;;;;5.20;73.51;99639.63;5063752;28;20203;-65
2021/03/21 00:15:32;;;;;;;1.23;0.70;;;;;;;5.19;73.54;99643.22;5064718;28;20669;-64
2021/03/21 00:18:00;;;;;;;3.17;0.83;;;;;;;5.14;73.83;99640.88;5066605;28;20225;-65
2021/03/21 00:20:31;;;;;;;0.70;0.70;;;;;;;5.21;73.42;99641.34;5060113;28;20672;-65
2021/03/21 00:22:59;;;;;;;1.70;1.10;;;;;;;5.16;73.55;99643.44;5062171;28;20253;-65
2021/03/21 00:25:28;;;;;;;1.23;0.80;;;;;;;5.25;74.07;99654.38;5057311;28;20208;-64
2021/03/21 00:27:55;;;;;;;1.03;0.63;;;;;;;5.09;73.74;99624.34;5058361;28;20225;-65
2021/03/21 00:30:27;;;;;;;1.00;0.90;;;;;;;5.20;73.61;99650.25;5065071;28;20220;-65
2021/03/21 00:32:54;;;;;;;0.73;0.73;;;;;;;5.25;73.62;99654.38;5063165;28;20542;-64
2021/03/21 00:35:23;;;;;;;1.10;1.00;;;;;;;5.28;73.21;99656.84;5065437;28;20581;-64
2021/03/21 00:37:54;;;;;;;3.90;0.77;;;;;;;5.25;73.56;99658.84;5064634;28;20189;-65
2021/03/21 00:40:22;;;;;;;0.83;0.80;;;;;;;5.06;73.26;99615.72;5062417;28;20669;-65
2021/03/21 00:42:50;;;;;;;2.37;0.70;;;;;;;5.26;73.46;99661.41;5062494;28;20684;-64
2021/03/21 00:45:19;;;;;;;0.70;0.70;;;;;;;5.20;74.29;99666.22;5065884;28;20220;-64
2021/03/21 00:47:48;;;;;;;2.27;0.90;;;;;;;5.29;73.68;99663.88;5062380;28;20205;-65
2021/03/21 00:50:20;;;;;;;1.03;0.70;;;;;;;5.32;72.85;99667.28;5064300;28;20194;-65
2021/03/21 00:52:48;;;;;;;0.80;0.80;;;;;;;5.14;72.93;99640.00;5061027;28;20705;-65
2021/03/21 00:55:15;;;;;;;1.50;1.13;;;;;;;5.36;72.66;99674.13;5063416;28;20232;-65
2021/03/21 00:57:43;;;;;;;0.97;0.97;;;;;;;5.42;72.52;99677.22;5067667;28;20619;-64
2021/03/21 01:00:17;;;;;;;0.93;0.60;;;;;;;5.45;72.27;99676.19;5060072;28;20221;-64
2021/03/21 01:02:45;;;;;;;0.70;0.70;;;;;;;5.45;72.57;99682.34;5062399;28;20217;-64
2021/03/21 01:05:19;;;;;;;1.20;0.63;;;;;;;5.46;72.33;99672.56;5060934;28;20222;-64
2021/03/21 01:07:48;;;;;;;1.50;0.80;;;;;;;5.49;71.77;99667.91;5060887;28;20205;-64
2021/03/21 01:10:15;;;;;;;1.80;1.03;;;;;;;5.53;71.58;99681.91;5062114;28;20198;-64
2021/03/21 01:12:46;;;;;;;1.33;0.87;;;;;;;5.47;71.95;99663.63;5059449;28;20219;-64
2021/03/21 01:15:14;;;;;;;0.70;0.70;;;;;;;5.49;72.14;99675.88;5058055;28;20581;-65
2021/03/21 01:17:42;;;;;;;3.50;0.60;;;;;;;5.43;71.72;99678.09;5059647;28;20309;-64
2021/03/21 01:20:10;;;;;;;0.53;0.53;;;;;;;5.46;71.64;99677.88;5062940;28;20193;-64
2021/03/21 01:22:38;;;;;;;3.27;0.50;;;;;;;5.41;71.56;99680.00;5059619;28;20225;-64
2021/03/21 01:25:07;;;;;;;0.60;0.60;;;;;;;5.43;70.96;99683.41;5056801;28;20201;-67
2021/03/21 01:27:50;;;;;;;0.60;0.50;;;;;;;5.45;70.62;99681.50;5065307;28;20672;-67
2021/03/21 01:30:18;;;;;;;0.83;0.70;;;;;;;5.38;70.77;99683.72;5067537;28;20191;-67
2021/03/21 01:32:46;;;;;;;0.83;0.70;;;;;;;5.33;70.83;99687.63;5055594;28;20203;-67
2021/03/21 01:35:15;;;;;;;1.40;0.83;;;;;;;5.10;70.10;99668.63;5054963;28;20269;-64
2021/03/21 01:37:43;;;;;;;0.83;0.50;;;;;;;5.16;70.17;99689.53;5069361;28;20643;-64
2021/03/21 01:40:13;;;;;;;2.10;1.57;;;;;;;5.10;69.70;99697.91;5068866;28;20208;-64
2021/03/21 01:42:42;;;;;;;1.90;1.80;;;;;;;5.06;69.47;99703.50;5068564;28;20236;-64
2021/03/21 01:45:30;;;;;;;1.23;1.23;;;;;;;5.06;69.21;99720.31;5065395;28;20194;-64
2021/03/21 01:47:58;;;;;;;1.43;0.70;;;;;;;5.10;70.06;99708.53;5062685;28;20209;-65
2021/03/21 01:50:30;;;;;;;1.33;0.80;;;;;;;5.08;68.91;99707.78;5064198;28;20258;-64
2021/03/21 01:52:59;;;;;;;1.20;1.10;;;;;;;5.09;68.72;99706.81;5050414;28;20278;-64
2021/03/21 01:55:26;;;;;;;2.70;0.90;;;;;;;5.13;68.51;99710.16;5063181;28;20206;-67
2021/03/21 01:58:01;;;;;;;3.40;1.00;;;;;;;5.14;68.89;99709.19;5067057;28;20194;-67
2021/03/21 02:00:28;;;;;;;0.57;0.53;;;;;;;5.14;68.57;99715.38;5067928;28;20206;-67
2021/03/21 02:02:55;;;;;;;1.37;0.50;;;;;;;4.97;66.31;99719.09;5065881;28;20300;-65
2021/03/21 02:05:22;;;;;;;1.10;1.00;;;;;;;5.02;67.13;99709.97;5064096;28;20200;-65
2021/03/21 02:08:09;;;;;;;0.20;0.20;;;;;;;4.93;66.54;99716.72;5061222;28;20285;-65
2021/03/21 02:10:45;;;;;;;1.10;0.50;;;;;;;5.02;65.53;99726.78;5064814;28;20201;-65
2021/03/21 02:13:19;;;;;;;0.47;0.47;;;;;;;4.94;63.29;99731.72;5053225;28;20280;-67
2021/03/21 02:15:54;;;;;;;0.93;0.70;;;;;;;4.92;64.78;99734.47;5065451;28;20311;-64
2021/03/21 02:18:30;;;;;;;0.40;0.40;;;;;;;4.97;64.36;99742.19;5058803;28;20677;-67
2021/03/21 02:21:27;;;;;;;0.40;0.40;;;;;;;4.94;64.73;99745.03;5053570;28;20208;-67
2021/03/21 02:24:39;;;;;;;1.93;0.60;;;;;;;4.86;64.66;99742.81;5053749;28;20236;-65
2021/03/21 02:27:22;;;;;;;0.53;0.53;;;;;;;4.93;64.74;99759.28;5060731;28;20613;-67
2021/03/21 02:29:55;;;;;;;1.87;0.50;;;;;;;4.89;65.49;99757.72;5066467;28;20285;-65
2021/03/21 02:32:30;;;;;;;1.33;0.50;;;;;;;4.75;65.39;99741.75;5069245;28;20204;-67
2021/03/21 02:35:06;;;;;;;0.50;0.50;;;;;;;4.71;66.35;99740.22;5051302;28;20193;-67
2021/03/21 02:37:46;;;;;;;1.07;0.30;;;;;;;4.79;66.58;99777.84;5052158;28;20285;-67
2021/03/21 02:40:27;;;;;;;0.77;0.60;;;;;;;4.74;66.29;99777.28;5067436;28;20664;-67
2021/03/21 02:42:59;;;;;;;0.60;0.60;;;;;;;4.57;66.29;99767.63;5064876;28;20228;-68
2021/03/21 02:45:30;;;;;;;0.40;0.40;;;;;;;4.58;66.41;99786.13;5057576;28;20198;-68
2021/03/21 02:48:03;;;;;;;0.30;0.30;;;;;;;4.48;66.88;99766.38;5070791;28;20212;-68
2021/03/21 02:50:35;;;;;;;0.67;0.30;;;;;;;4.57;67.11;99781.78;5057876;28;20212;-68
2021/03/21 02:53:08;;;;;;;0.40;0.40;;;;;;;4.58;67.13;99788.81;5060622;28;20216;-67
2021/03/21 02:55:39;;;;;;;2.57;0.47;;;;;;;4.39;66.84;99785.53;5052672;28;20316;-67
2021/03/21 02:58:10;;;;;;;0.73;0.50;;;;;;;4.47;66.64;99793.91;5064338;28;20269;-68
2021/03/21 03:00:43;;;;;;;0.30;0.30;;;;;;;4.47;66.77;99777.94;5059009;28;20199;-67
2021/03/21 03:03:13;;;;;;;0.30;0.30;;;;;;;4.42;66.64;99784.47;5070911;28;20598;-67
2021/03/21 03:05:44;;;;;;;2.17;0.47;;;;;;;4.44;66.69;99794.06;5057373;28;20219;-68
2021/03/21 03:08:17;;;;;;;0.97;0.60;;;;;;;4.43;67.25;99803.00;5059594;28;20276;-68
2021/03/21 03:10:48;;;;;;;0.20;0.20;;;;;;;4.01;67.01;99751.38;5067620;28;20209;-68
2021/03/21 03:13:18;;;;;;;0.60;0.60;;;;;;;4.33;66.91;99807.13;5064199;28;20189;-65
2021/03/21 03:15:46;;;;;;;0.30;0.30;;;;;;;4.20;66.19;99820.25;5071769;28;20536;-67
2021/03/21 03:18:25;;;;;;;0.53;0.40;;;;;;;4.13;65.55;99813.56;5070668;28;20200;-65
2021/03/21 03:20:56;;;;;;;0.63;0.37;;;;;;;4.08;66.61;99818.28;5058715;28;20199;-65
2021/03/21 03:23:29;;;;;;;1.27;0.70;;;;;;;4.05;65.74;99807.84;5070337;28;20213;-67
2021/03/21 03:26:02;;;;;;;0.40;0.40;;;;;;;4.02;63.04;99816.84;5071519;28;20664;-68
2021/03/21 03:28:35;;;;;;;0.40;0.23;;;;;;;4.00;65.72;99832.00;5071950;28;20256;-65
2021/03/21 03:31:11;;;;;;;0.93;0.50;;;;;;;3.99;66.00;99829.44;5058719;28;20205;-66
2021/03/21 03:33:39;;;;;;;0.30;0.30;;;;;;;4.00;65.95;99824.03;5061810;28;20209;-64
2021/03/21 03:36:08;;;;;;;0.40;0.40;;;;;;;3.95;65.46;99828.72;5057015;28;20201;-67
2021/03/21 03:38:36;;;;;;;1.40;0.43;;;;;;;3.92;63.34;99831.56;5057862;28;20201;-67
2021/03/21 03:41:13;;;;;;;47.03;29.87;;;;;;;3.89;63.04;99833.53;5063375;28;20234;-64
2021/03/21 03:43:51;;;;;;;4.27;3.00;;;;;;;3.86;63.72;99831.91;5070845;28;20847;-65
2021/03/21 03:46:23;;;;;;;0.67;0.43;;;;;;;3.77;62.10;99844.84;5059288;28;20573;-64
2021/03/21 03:48:59;;;;;;;3.13;0.40;;;;;;;3.91;61.67;99843.13;5068641;28;20671;-64
2021/03/21 03:51:31;;;;;;;0.40;0.40;;;;;;;3.85;62.02;99842.59;5071273;28;20231;-64
2021/03/21 03:54:15;;;;;;;0.20;0.20;;;;;;;3.93;61.69;99861.63;5052104;28;20198;-67
2021/03/21 03:56:48;;;;;;;0.40;0.40;;;;;;;3.88;59.39;99859.22;5051162;28;20300;-67
2021/03/21 03:59:42;;;;;;;0.43;0.43;;;;;;;3.97;62.10;99871.13;5067039;28;20230;-64
2021/03/21 04:02:17;;;;;;;1.13;0.57;;;;;;;3.78;62.70;99836.78;5051263;28;20287;-64
2021/03/21 04:04:50;;;;;;;0.20;0.20;;;;;;;3.82;61.99;99859.56;5070770;28;20249;-65
2021/03/21 04:07:24;;;;;;;0.20;0.20;;;;;;;3.94;62.84;99879.28;5057364;28;20664;-65
2021/03/21 04:09:54;;;;;;;0.57;0.57;;;;;;;3.89;61.00;99882.19;5063416;28;20404;-65
2021/03/21 04:12:32;;;;;;;0.20;0.20;;;;;;;3.84;59.20;99884.25;5067796;28;20204;-65
2021/03/21 04:15:06;;;;;;;7.27;4.37;;;;;;;3.79;60.70;99888.94;5063528;28;20188;-64
2021/03/21 04:17:40;;;;;;;0.60;0.27;;;;;;;3.78;60.99;99884.56;5062219;28;20199;-65
2021/03/21 04:20:15;;;;;;;0.77;0.77;;;;;;;3.77;59.95;99888.16;5054365;28;20280;-65
2021/03/21 04:22:48;;;;;;;0.10;0.10;;;;;;;3.80;60.86;99890.66;5063658;28;20596;-64
2021/03/21 04:25:19;;;;;;;0.67;0.67;;;;;;;3.68;57.64;99873.59;5062120;28;20288;-64
2021/03/21 04:27:53;;;;;;;0.63;0.50;;;;;;;3.83;60.78;99898.47;5065691;28;20784;-64
2021/03/21 04:30:28;;;;;;;4.23;0.43;;;;;;;3.79;60.51;99898.72;5060642;28;20281;-65
2021/03/21 04:32:57;;;;;;;0.30;0.30;;;;;;;3.78;60.73;99905.81;5058846;28;20304;-65
2021/03/21 04:35:28;;;;;;;0.10;0.10;;;;;;;3.64;59.07;99898.56;5056779;28;20299;-65
2021/03/21 04:38:01;;;;;;;2.63;0.50;;;;;;;3.61;58.75;99909.34;5051164;28;20673;-65
2021/03/21 04:40:29;;;;;;;0.40;0.20;;;;;;;3.30;59.86;99862.34;5055356;28;20568;-65
2021/03/21 04:42:59;;;;;;;3.20;0.50;;;;;;;3.37;56.85;99895.59;5068886;28;20646;-65
2021/03/21 04:45:30;;;;;;;1.07;0.30;;;;;;;3.47;58.48;99903.94;5064794;28;20206;-65
2021/03/21 04:48:02;;;;;;;0.63;0.20;;;;;;;3.50;56.73;99921.47;5056707;28;20597;-65
2021/03/21 04:50:30;;;;;;;0.10;0.10;;;;;;;3.48;56.30;99931.31;5063350;28;20219;-65
2021/03/21 04:53:10;;;;;;;0.20;0.20;;;;;;;3.59;59.44;99931.59;5058621;28;20206;-65
2021/03/21 04:55:42;;;;;;;0.20;0.20;;;;;;;3.53;55.78;99926.63;5064206;28;20228;-65
2021/03/21 04:58:15;;;;;;;2.13;0.57;;;;;;;3.46;57.57;99933.19;5062716;28;20292;-65
2021/03/21 05:00:46;;;;;;;0.30;0.30;;;;;;;3.57;57.54;99936.16;5063623;28;20270;-65
2021/03/21 05:03:19;;;;;;;6.33;0.57;;;;;;;3.58;56.00;99940.50;5060410;28;20333;-65
2021/03/21 05:05:56;;;;;;;0.83;0.33;;;;;;;3.59;58.86;99943.09;5055781;28;20224;-65
2021/03/21 05:08:28;;;;;;;0.13;0.13;;;;;;;3.59;57.66;99950.19;5060674;28;20220;-66
2021/03/21 05:10:59;;;;;;;0.27;0.27;;;;;;;3.64;57.72;99935.72;5063488;28;20212;-65
2021/03/21 05:13:33;;;;;;;0.30;0.30;;;;;;;3.68;58.60;99942.63;5060232;28;20222;-65
2021/03/21 05:16:04;;;;;;;0.40;0.40;;;;;;;3.69;58.48;99949.66;5069636;28;20422;-65
2021/03/21 05:18:39;;;;;;;1.90;0.53;;;;;;;3.66;55.13;99954.22;5058438;28;20725;-65
2021/03/21 05:21:12;;;;;;;66.77;39.50;;;;;;;3.49;58.51;99925.94;5058217;28;20671;-67
2021/03/21 05:23:58;;;;;;;4.90;2.83;;;;;;;3.56;58.11;99922.00;5059344;28;20234;-67
2021/03/21 05:26:30;;;;;;;0.53;0.53;;;;;;;3.83;56.51;99962.19;5053144;28;20679;-66
2021/03/21 05:29:20;;;;;;;2.63;0.90;;;;;;;4.03;56.88;99969.97;5063644;28;20248;-66
2021/03/21 05:31:48;;;;;;;1.03;0.73;;;;;;;4.10;58.02;99975.81;5066444;28;20198;-66
2021/03/21 05:34:17;;;;;;;0.47;0.47;;;;;;;4.28;58.60;99981.91;5059537;28;20224;-66
2021/03/21 05:37:00;;;;;;;1.77;0.47;;;;;;;4.31;55.29;99987.94;5056313;28;20359;-67
2021/03/21 05:39:42;;;;;;;0.83;0.10;;;;;;;4.43;56.53;99989.06;5068221;28;20668;-66
2021/03/21 05:42:45;;;;;;;0.33;0.30;;;;;;;4.56;57.65;99990.09;5066485;28;20225;-66
2021/03/21 05:45:40;;;;;;;3.60;0.30;;;;;;;4.68;58.14;99992.09;5059567;28;20291;-66
2021/03/21 05:48:53;;;;;;;0.63;0.40;;;;;;;4.78;56.29;100003.06;5049367;28;20229;-66
2021/03/21 05:52:14;;;;;;;0.40;0.40;;;;;;;4.85;55.38;100006.22;5061232;28;20690;-66
2021/03/21 05:55:04;;;;;;;1.47;0.50;;;;;;;4.96;57.29;100007.34;5062016;28;20245;-66
2021/03/21 05:57:56;;;;;;;0.57;0.43;;;;;;;5.08;55.33;100012.91;5067865;28;20220;-67
2021/03/21 06:01:07;;;;;;;0.60;0.40;;;;;;;5.13;55.76;99987.75;5067595;28;20280;-68
2021/03/21 06:04:16;;;;;;;1.90;0.10;;;;;;;5.18;50.39;100009.63;5024864;28;20268;-67
2021/03/21 06:07:15;;;;;;;1.00;0.23;;;;;;;5.29;52.98;100017.88;5054290;28;20678;-67
2021/03/21 06:09:54;;;;;;;1.23;0.37;;;;;;;5.34;51.97;100009.63;5060383;28;20258;-68
2021/03/21 06:12:36;;;;;;;2.10;0.33;;;;;;;5.50;53.80;100021.06;5074839;28;20204;-67
2021/03/21 06:15:37;;;;;;;0.37;0.23;;;;;;;5.52;53.11;100021.00;5062592;28;20284;-66
2021/03/21 06:18:21;;;;;;;0.20;0.20;;;;;;;5.57;50.78;100025.13;5059815;28;20197;-67
2021/03/21 06:21:17;;;;;;;0.30;0.30;;;;;;;5.72;51.54;100031.31;5070343;28;20198;-67
2021/03/21 06:24:21;;;;;;;0.43;0.23;;;;;;;5.67;49.74;100037.88;5058101;28;20316;-67
2021/03/21 06:27:03;;;;;;;1.13;0.40;;;;;;;5.68;50.32;100026.28;5072642;28;20236;-67
2021/03/21 06:29:51;;;;;;;0.30;0.20;;;;;;;5.78;51.95;100041.59;5072152;28;20280;-67
2021/03/21 06:32:34;;;;;;;0.63;0.23;;;;;;;5.85;52.48;100042.97;5055229;28;20229;-67
2021/03/21 06:35:22;;;;;;;1.13;0.27;;;;;;;5.85;50.42;100048.31;5065224;28;20198;-67
2021/03/21 06:38:15;;;;;;;0.97;0.17;;;;;;;6.01;48.84;100063.41;5061990;28;20742;-67
2021/03/21 06:41:13;;;;;;;0.37;0.27;;;;;;;6.08;49.98;100056.75;5064939;28;20201;-66
2021/03/21 06:44:07;;;;;;;0.70;0.30;;;;;;;6.26;49.70;100060.13;5066811;28;20296;-66
2021/03/21 06:47:05;;;;;;;1.17;0.33;;;;;;;6.41;50.06;100065.34;5070781;28;20201;-66
2021/03/21 06:49:51;;;;;;;0.63;0.30;;;;;;;6.36;47.58;100059.44;5072072;28;20685;-66
2021/03/21 06:52:28;;;;;;;0.33;0.33;;;;;;;6.66;50.90;100063.84;5070416;28;20190;-66
2021/03/21 06:55:01;;;;;;;0.60;0.20;;;;;;;6.60;50.21;100083.75;5072100;28;20189;-66
2021/03/21 06:58:04;;;;;;;1.10;0.40;;;;;;;6.65;46.63;100091.47;5065164;28;20665;-65
2021/03/21 07:00:52;;;;;;;6.13;0.30;;;;;;;6.72;51.84;100068.78;5051838;28;20681;-65
2021/03/21 07:04:01;;;;;;;0.10;0.10;;;;;;;6.69;46.92;100093.84;5060823;28;20629;-65
2021/03/21 07:07:40;;;;;;;0.20;0.20;;;;;;;6.78;48.30;100081.75;5070933;28;20238;-65
2021/03/21 07:10:44;;;;;;;0.33;0.33;;;;;;;7.00;49.40;100097.25;5065346;28;20206;-67
2021/03/21 07:13:48;;;;;;;2.83;0.40;;;;;;;7.05;47.25;100084.50;5071437;28;20207;-67
2021/03/21 07:16:47;;;;;;;0.43;0.43;;;;;;;7.29;49.92;100108.75;5062882;28;20757;-66
2021/03/21 07:19:47;;;;;;;0.10;0.10;;;;;;;7.26;46.29;100108.94;5026960;28;20217;-67
2021/03/21 07:22:47;;;;;;;0.20;0.20;;;;;;;7.35;47.42;100109.22;5033461;28;20213;-66
2021/03/21 07:25:50;;;;;;;0.10;0.10;;;;;;;7.46;47.09;100108.53;5062216;28;20296;-67
2021/03/21 07:28:55;;;;;;;2.53;0.40;;;;;;;7.46;47.63;100108.53;5063309;28;20225;-67
2021/03/21 07:31:43;;;;;;;0.73;0.27;;;;;;;7.29;46.65;100088.22;5058060;28;20213;-67
2021/03/21 07:34:38;;;;;;;0.40;0.30;;;;;;;7.52;46.92;100121.47;5066328;28;20517;-65
2021/03/21 07:37:14;;;;;;;0.20;0.20;;;;;;;7.41;45.25;100116.84;5063928;28;20634;-66
2021/03/21 07:39:57;;;;;;;0.27;0.27;;;;;;;7.43;45.88;100119.41;5066221;28;20190;-67
2021/03/21 07:42:38;;;;;;;0.10;0.10;;;;;;;7.41;45.87;100124.00;5071178;28;20206;-65
2021/03/21 07:45:23;;;;;;;2.00;0.40;;;;;;;7.40;43.61;100108.94;5067365;28;20219;-65
2021/03/21 07:48:30;;;;;;;3.77;0.30;;;;;;;7.44;46.99;100107.75;5070525;28;20273;-66
2021/03/21 07:51:08;;;;;;;2.43;0.30;;;;;;;7.43;45.72;100116.75;5069329;28;20199;-66
2021/03/21 07:53:39;;;;;;;1.90;0.40;;;;;;;7.48;44.90;100127.97;5066911;28;20198;-68
2021/03/21 07:56:13;;;;;;;3.03;0.40;;;;;;;7.19;43.53;100126.31;5068828;28;20220;-67
2021/03/21 07:58:45;;;;;;;0.20;0.20;;;;;;;7.33;45.31;100131.63;5058869;28;20760;-68
2021/03/21 08:01:13;;;;;;;1.50;0.37;;;;;;;7.50;46.38;100127.88;5055763;28;20216;-67
2021/03/21 08:03:52;;;;;;;0.50;0.17;;;;;;;7.57;46.66;100146.06;5068017;28;20224;-67
2021/03/21 08:06:27;;;;;;;0.20;0.20;;;;;;;7.51;46.08;100157.16;5069155;28;20215;-68
2021/03/21 08:09:02;;;;;;;0.40;0.30;;;;;;;7.41;46.24;100146.22;5065640;28;20279;-67
2021/03/21 08:11:30;;;;;;;0.70;0.63;;;;;;;7.27;44.23;100143.56;5065968;28;20206;-67
2021/03/21 08:14:10;;;;;;;0.53;0.40;;;;;;;7.03;45.53;100081.03;5067950;28;20227;-68
2021/03/21 08:16:43;;;;;;;0.30;0.30;;;;;;;7.46;43.51;100133.41;5064664;28;20235;-67
2021/03/21 08:19:15;;;;;;;0.27;0.27;;;;;;;7.15;43.11;100150.56;5066466;28;20229;-68
2021/03/21 08:21:42;;;;;;;0.40;0.30;;;;;;;7.11;42.79;100132.16;5067018;28;20218;-67
2021/03/21 08:24:16;;;;;;;0.87;0.60;;;;;;;6.91;42.52;100135.22;5065902;28;20250;-68
2021/03/21 08:26:45;;;;;;;0.20;0.20;;;;;;;7.02;42.93;100136.25;5066269;28;21408;-68
2021/03/21 08:29:16;;;;;;;8.60;0.60;;;;;;;6.97;42.68;100142.81;5065031;28;20359;-68
2021/03/21 08:31:46;;;;;;;0.20;0.20;;;;;;;6.72;42.74;100140.81;5068413;28;20203;-67
2021/03/21 08:34:44;;;;;;;0.10;0.10;;;;;;;7.06;42.75;100161.81;5067584;28;20198;-64
2021/03/21 08:37:28;;;;;;;0.20;0.20;;;;;;;7.08;46.41;100138.56;5068587;28;20202;-64
2021/03/21 08:40:01;;;;;;;2.73;0.30;;;;;;;7.21;47.46;100151.97;5065833;28;20222;-64
2021/03/21 08:42:38;;;;;;;0.27;0.27;;;;;;;7.13;46.91;100159.63;5067026;28;20202;-68
2021/03/21 08:45:28;;;;;;;0.20;0.20;;;;;;;7.06;45.63;100156.47;5065156;28;20250;-64
2021/03/21 08:47:58;;;;;;;3.53;0.60;;;;;;;6.84;43.50;100151.59;5065684;28;20203;-64
2021/03/21 08:50:38;;;;;;;0.27;0.23;;;;;;;6.90;45.17;100166.38;5062203;28;20551;-64
2021/03/21 08:53:30;;;;;;;0.40;0.30;;;;;;;6.78;41.28;100172.47;5064069;28;20291;-66
2021/03/21 08:56:20;;;;;;;8.30;0.40;;;;;;;6.62;42.47;100137.88;5065212;28;20301;-66
2021/03/21 08:58:49;;;;;;;4.17;1.00;;;;;;;6.60;43.72;100157.59;5064620;28;20273;-67
2021/03/21 09:01:22;;;;;;;3.47;0.47;;;;;;;6.64;44.49;100169.78;5065746;28;20287;-66
2021/03/21 09:03:52;;;;;;;0.27;0.27;;;;;;;6.65;42.62;100183.03;5065088;28;20261;-66
2021/03/21 09:06:31;;;;;;;0.07;0.07;;;;;;;6.78;43.26;100188.50;5065618;28;20223;-66
2021/03/21 09:09:25;;;;;;;3.53;0.30;;;;;;;6.78;42.51;100180.50;5064544;28;20236;-66
2021/03/21 09:11:55;;;;;;;2.03;0.27;;;;;;;6.81;43.95;100196.31;5058814;28;20212;-66
2021/03/21 09:14:27;;;;;;;0.10;0.10;;;;;;;6.86;42.08;100220.91;5055525;28;20207;-66
2021/03/21 09:17:02;;;;;;;0.20;0.20;;;;;;;6.87;45.80;100192.41;5057123;28;20227;-66
2021/03/21 09:19:33;;;;;;;1.87;0.20;;;;;;;6.57;45.66;100168.44;5056409;28;20218;-66
2021/03/21 09:22:02;;;;;;;0.97;0.20;;;;;;;6.74;41.81;100219.00;5055064;28;20196;-66
2021/03/21 09:24:33;;;;;;;1.87;0.33;;;;;;;6.72;42.11;100218.19;5056735;28;20610;-66
2021/03/21 09:27:16;;;;;;;4.70;0.77;;;;;;;6.87;41.14;100198.59;5057027;28;21098;-69
2021/03/21 09:29:45;;;;;;;60.27;35.27;;;;;;;7.06;43.89;100212.53;5057782;28;20192;-66
2021/03/21 09:32:25;;;;;;;2.73;2.00;;;;;;;7.13;42.27;100210.34;5055944;28;20199;-65
2021/03/21 09:35:02;;;;;;;1.03;0.73;;;;;;;7.31;44.94;100227.00;5056574;28;20250;-65
2021/03/21 09:37:35;;;;;;;3.40;0.60;;;;;;;7.26;41.07;100218.44;5060317;28;20672;-66
2021/03/21 09:40:21;;;;;;;0.33;0.33;;;;;;;7.01;40.92;100209.28;5055448;28;20573;-65
2021/03/21 09:42:50;;;;;;;0.90;0.40;;;;;;;7.33;44.19;100250.00;5056865;28;20643;-65
2021/03/21 09:45:18;;;;;;;1.50;0.30;;;;;;;7.24;43.38;100215.00;5065545;28;20699;-67
2021/03/21 09:47:52;;;;;;;0.30;0.30;;;;;;;7.36;41.71;100257.00;5054513;28;20597;-67
2021/03/21 09:50:44;;;;;;;5.20;0.50;;;;;;;7.37;43.14;100248.03;5056944;28;20277;-67
2021/03/21 09:53:50;;;;;;;0.37;0.30;;;;;;;7.53;44.63;100246.09;5064883;28;20208;-67
2021/03/21 09:56:26;;;;;;;0.33;0.30;;;;;;;7.58;44.37;100254.66;5046470;28;20301;-66
2021/03/21 09:58:59;;;;;;;1.00;0.30;;;;;;;7.50;41.48;100267.66;5054423;28;20619;-66
2021/03/21 10:01:37;;;;;;;1.23;0.60;;;;;;;7.61;41.36;100273.16;5070214;28;20562;-67
2021/03/21 10:04:22;;;;;;;0.67;0.67;;;;;;;7.58;41.56;100286.72;5049306;28;20609;-66
2021/03/21 10:06:55;;;;;;;3.80;0.90;;;;;;;7.63;40.85;100273.94;5064818;28;20218;-66
2021/03/21 10:09:29;;;;;;;0.70;0.70;;;;;;;7.73;39.95;100284.91;5068883;28;20219;-66
2021/03/21 10:12:04;;;;;;;0.57;0.40;;;;;;;7.88;40.19;100301.78;5068216;28;20219;-65
2021/03/21 10:14:49;;;;;;;4.43;0.50;;;;;;;7.95;43.67;100274.53;5056222;28;20193;-66
2021/03/21 10:17:49;;;;;;;0.20;0.20;;;;;;;7.68;38.60;100295.91;5053722;28;20659;-64
2021/03/21 10:20:18;;;;;;;0.77;0.40;;;;;;;7.44;38.05;100308.13;5060795;28;20197;-66
2021/03/21 10:22:57;;;;;;;0.30;0.30;;;;;;;7.38;37.08;100295.13;5061638;28;20196;-66
2021/03/21 10:26:03;;;;;;;0.20;0.20;;;;;;;7.39;37.30;100307.53;5053159;28;20273;-66
2021/03/21 10:28:48;;;;;;;0.10;0.10;;;;;;;7.42;37.79;100288.66;5051903;28;20252;-66
2021/03/21 10:31:37;;;;;;;1.07;0.97;;;;;;;7.56;38.65;100310.00;5049035;28;20296;-66
2021/03/21 10:34:34;;;;;;;2.57;0.40;;;;;;;7.57;37.92;100311.72;5067971;28;20195;-66
2021/03/21 10:37:01;;;;;;;0.20;0.20;;;;;;;7.46;37.38;100292.84;5047936;28;20209;-66
2021/03/21 10:39:55;;;;;;;1.60;0.40;;;;;;;7.54;38.21;100295.88;5067596;28;20204;-66
2021/03/21 10:42:43;;;;;;;0.83;0.63;;;;;;;7.57;36.83;100305.53;5070993;28;20657;-67
2021/03/21 10:45:15;;;;;;;9.40;0.27;;;;;;;7.67;36.52;100315.56;5062508;28;20219;-66
2021/03/21 10:47:51;;;;;;;1.00;0.30;;;;;;;7.69;38.12;100294.94;5063299;28;20203;-66
2021/03/21 10:50:53;;;;;;;2.37;0.20;;;;;;;7.70;38.15;100318.03;5063564;28;20232;-66
2021/03/21 10:53:24;;;;;;;0.10;0.10;;;;;;;7.34;37.15;100293.59;5055489;28;20549;-66
2021/03/21 10:56:20;;;;;;;0.70;0.40;;;;;;;7.66;37.25;100321.88;5060805;28;20517;-67
2021/03/21 10:59:19;;;;;;;0.67;0.43;;;;;;;7.82;37.25;100323.56;5071451;28;20557;-66
2021/03/21 11:01:48;;;;;;;0.30;0.30;;;;;;;7.91;38.22;100320.28;5062322;28;20208;-66
2021/03/21 11:04:40;;;;;;;0.63;0.37;;;;;;;8.18;38.60;100328.38;5057260;28;20824;-65
2021/03/21 11:07:14;;;;;;;1.03;0.43;;;;;;;8.25;37.53;100335.88;5061963;28;20203;-66
2021/03/21 11:09:57;;;;;;;0.10;0.10;;;;;;;8.05;37.92;100328.31;5070277;28;20213;-67
2021/03/21 11:12:34;;;;;;;0.20;0.20;;;;;;;8.23;36.67;100336.94;5070155;28;20209;-66
2021/03/21 11:15:30;;;;;;;0.20;0.20;;;;;;;8.37;38.31;100351.19;5061180;28;20276;-66
2021/03/21 11:18:04;;;;;;;1.20;0.40;;;;;;;8.47;37.92;100355.94;5070317;28;20614;-66
2021/03/21 11:20:34;;;;;;;0.40;0.40;;;;;;;8.39;35.65;100359.13;5062063;28;20289;-66
2021/03/21 11:23:08;;;;;;;0.67;0.30;;;;;;;8.57;38.62;100340.97;5069126;28;20201;-66
2021/03/21 11:25:39;;;;;;;0.40;0.40;;;;;;;8.58;36.61;100340.06;5067293;28;20229;-66
2021/03/21 11:28:07;;;;;;;3.10;0.30;;;;;;;8.66;36.85;100335.03;5060284;28;20235;-65
2021/03/21 11:30:35;;;;;;;0.30;0.30;;;;;;;8.62;36.36;100365.66;5064913;28;20209;-66
2021/03/21 11:33:25;;;;;;;0.30;0.30;;;;;;;8.65;35.84;100350.25;5059348;28;20314;-65
2021/03/21 11:36:08;;;;;;;0.20;0.20;;;;;;;8.76;36.01;100351.34;5057166;28;20655;-67
2021/03/21 11:38:41;;;;;;;0.30;0.30;;;;;;;8.93;37.14;100349.25;5070778;28;20298;-66
2021/03/21 11:41:23;;;;;;;0.90;0.47;;;;;;;9.14;35.90;100351.44;5070638;28;20526;-66
2021/03/21 11:43:50;;;;;;;1.17;0.50;;;;;;;9.15;34.95;100347.78;5058562;28;20226;-66
2021/03/21 11:46:29;;;;;;;0.13;0.13;;;;;;;9.15;36.40;100342.44;5071602;28;20191;-66
2021/03/21 11:48:59;;;;;;;0.73;0.30;;;;;;;9.13;34.50;100360.44;5063173;28;20203;-66
2021/03/21 11:51:27;;;;;;;0.30;0.30;;;;;;;8.84;34.01;100365.06;5059379;28;20310;-65
2021/03/21 11:53:55;;;;;;;5.10;0.60;;;;;;;8.92;34.64;100362.75;5065026;28;20285;-65
2021/03/21 11:56:27;;;;;;;4.73;0.23;;;;;;;9.05;35.72;100365.47;5058341;28;20204;-65
2021/03/21 11:58:58;;;;;;;0.13;0.13;;;;;;;9.17;34.04;100367.28;5056421;28;20297;-64
2021/03/21 12:01:37;;;;;;;324.00;178.03;;;;;;;8.85;34.32;100362.28;5053653;28;20292;-65
2021/03/21 12:04:10;;;;;;;3.90;2.43;;;;;;;8.32;33.50;100358.63;5057457;28;20586;-64
2021/03/21 12:06:41;;;;;;;2.33;1.53;;;;;;;8.40;35.11;100361.69;5057953;28;20704;-64
2021/03/21 12:09:20;;;;;;;0.97;0.90;;;;;;;8.43;34.77;100365.13;5056022;28;20239;-63
2021/03/21 12:11:47;;;;;;;0.50;0.50;;;;;;;8.29;35.04;100382.91;5053149;28;20215;-64
2021/03/21 12:14:37;;;;;;;1.00;0.70;;;;;;;8.64;34.56;100361.06;5054801;28;20188;-66
2021/03/21 12:17:31;;;;;;;0.43;0.43;;;;;;;9.04;36.23;100364.59;5053675;28;20257;-64
2021/03/21 12:20:38;;;;;;;0.50;0.50;;;;;;;8.82;34.29;100364.31;5055208;28;20289;-63
2021/03/21 12:23:07;;;;;;;0.33;0.30;;;;;;;9.12;36.18;100369.44;5057797;28;20222;-63
2021/03/21 12:25:36;;;;;;;2.43;0.30;;;;;;;9.14;35.51;100341.56;5054399;28;20229;-64
2021/03/21 12:28:10;;;;;;;0.97;0.40;;;;;;;9.17;35.55;100364.63;5059366;28;20245;-64